createdAt,value
2023-01-19T00:01:39.146Z,96059.31
2023-01-19T00:04:06.587Z,96061.03
2023-01-19T00:06:33.490Z,96061.59
2023-01-19T00:09:00.089Z,96057.72
2023-01-19T00:11:26.659Z,96064.78
2023-01-19T00:13:53.652Z,96064.25
2023-01-19T00:16:22.388Z,96068.19
2023-01-19T00:18:50.839Z,96063.06
2023-01-19T00:21:17.627Z,96059.59
2023-01-19T00:23:47.316Z,96067.69
2023-01-19T00:26:17.111Z,96070.88
2023-01-19T00:28:44.300Z,96073.72
2023-01-19T00:31:11.308Z,96067.31
2023-01-19T00:33:37.924Z,96072.56
2023-01-19T00:36:04.890Z,96067.06
2023-01-19T00:38:31.496Z,96067.19
2023-01-19T00:40:58.090Z,96066.13
2023-01-19T00:43:24.704Z,96060.09
2023-01-19T00:45:51.508Z,96068.69
2023-01-19T00:48:18.112Z,96082.56
2023-01-19T00:50:44.733Z,96082.34
2023-01-19T00:53:11.358Z,96081.63
2023-01-19T00:55:37.959Z,96089.78
2023-01-19T00:58:04.790Z,96084.31
2023-01-19T01:00:31.455Z,96090.84
2023-01-19T01:02:58.518Z,96087.00
2023-01-19T01:05:25.567Z,96080.25
2023-01-19T01:07:52.189Z,96092.84
2023-01-19T01:10:19.754Z,96099.09
2023-01-19T01:12:56.037Z,96099.69
2023-01-19T01:15:26.486Z,96101.13
2023-01-19T01:17:53.234Z,96100.22
2023-01-19T01:20:22.528Z,96105.38
2023-01-19T01:22:50.545Z,96118.22
2023-01-19T01:25:18.727Z,96116.00
2023-01-19T01:27:45.374Z,96118.91
2023-01-19T01:30:13.010Z,96119.59
2023-01-19T01:32:39.660Z,96110.75
2023-01-19T01:35:06.731Z,96119.22
2023-01-19T01:37:33.369Z,96120.06
2023-01-19T01:39:59.971Z,96126.97
2023-01-19T01:42:30.232Z,96140.03
2023-01-19T01:45:01.093Z,96135.16
2023-01-19T01:47:44.493Z,96145.53
2023-01-19T01:50:33.551Z,96152.22
2023-01-19T01:53:08.244Z,96143.00
2023-01-19T01:55:41.647Z,96147.38
2023-01-19T01:58:08.310Z,96149.31
2023-01-19T02:00:53.678Z,96164.00
2023-01-19T02:03:22.334Z,96165.56
2023-01-19T02:05:49.025Z,96142.56
2023-01-19T02:08:51.676Z,96160.41
2023-01-19T02:11:36.999Z,96152.97
2023-01-19T02:14:04.779Z,96149.38
2023-01-19T02:16:31.389Z,96140.53
2023-01-19T02:18:57.987Z,96137.78
2023-01-19T02:21:33.314Z,96136.16
2023-01-19T02:24:01.589Z,96140.69
2023-01-19T02:26:37.607Z,96135.94
2023-01-19T02:29:08.368Z,96148.81
2023-01-19T02:31:35.505Z,96141.75
2023-01-19T02:34:02.137Z,96142.81
2023-01-19T02:36:50.453Z,96138.88
2023-01-19T02:39:19.613Z,96141.66
2023-01-19T02:41:52.657Z,96160.44
2023-01-19T02:44:19.282Z,96162.25
2023-01-19T02:46:45.894Z,96159.47
2023-01-19T02:49:13.632Z,96162.00
2023-01-19T02:51:40.331Z,96157.25
2023-01-19T02:54:30.983Z,96164.78
2023-01-19T02:57:10.853Z,96178.50
2023-01-19T02:59:59.547Z,96189.81
2023-01-19T03:02:36.004Z,96177.19
2023-01-19T03:05:17.276Z,96172.31
2023-01-19T03:07:53.153Z,96177.41
2023-01-19T03:10:29.417Z,96184.06
2023-01-19T03:13:10.478Z,96181.50
2023-01-19T03:15:55.809Z,96177.09
2023-01-19T03:18:24.619Z,96193.25
2023-01-19T03:20:51.795Z,96194.66
2023-01-19T03:23:18.445Z,96193.47
2023-01-19T03:25:45.552Z,96194.84
2023-01-19T03:28:12.127Z,96200.13
2023-01-19T03:30:40.524Z,96186.66
2023-01-19T03:33:13.494Z,96192.56
2023-01-19T03:35:43.338Z,96192.31
2023-01-19T03:38:12.634Z,96194.16
2023-01-19T03:40:39.258Z,96207.13
2023-01-19T03:43:05.895Z,96212.44
2023-01-19T03:45:32.896Z,96213.66
2023-01-19T03:47:59.942Z,96204.91
2023-01-19T03:50:28.266Z,96206.38
2023-01-19T03:53:21.823Z,96212.47
2023-01-19T03:55:48.722Z,96203.50
2023-01-19T03:58:15.310Z,96195.69
2023-01-19T04:00:42.147Z,96201.31
2023-01-19T04:03:13.559Z,96205.22
2023-01-19T04:05:40.199Z,96208.34
2023-01-19T04:08:06.877Z,96204.94
2023-01-19T04:10:33.516Z,96203.94
2023-01-19T04:13:01.399Z,96192.84
2023-01-19T04:15:28.732Z,96193.38
2023-01-19T04:17:57.447Z,96193.06
2023-01-19T04:20:24.374Z,96189.28
2023-01-19T04:22:50.984Z,96192.06
2023-01-19T04:25:17.580Z,96195.16
2023-01-19T04:27:44.197Z,96196.22
2023-01-19T04:30:11.254Z,96203.09
2023-01-19T04:32:37.883Z,96196.25
2023-01-19T04:35:04.974Z,96202.31
2023-01-19T04:37:31.596Z,96199.38
2023-01-19T04:39:58.203Z,96194.44
2023-01-19T04:42:24.900Z,96202.06
2023-01-19T04:44:52.593Z,96197.50
2023-01-19T04:47:19.653Z,96206.28
2023-01-19T04:49:46.259Z,96210.50
2023-01-19T04:52:12.844Z,96208.13
2023-01-19T04:54:39.443Z,96219.47
2023-01-19T04:57:06.108Z,96229.56
2023-01-19T04:59:32.700Z,96232.19
2023-01-19T05:01:59.392Z,96220.84
2023-01-19T05:04:26.495Z,96224.94
2023-01-19T05:06:54.305Z,96221.75
2023-01-19T05:09:20.925Z,96221.41
2023-01-19T05:11:47.560Z,96222.19
2023-01-19T05:14:14.215Z,96216.56
2023-01-19T05:16:40.861Z,96218.38
2023-01-19T05:19:07.484Z,96210.03
2023-01-19T05:21:34.133Z,96216.81
2023-01-19T05:24:00.858Z,96207.25
2023-01-19T05:26:27.549Z,96184.44
2023-01-19T05:28:54.199Z,96189.66
2023-01-19T05:31:20.924Z,96179.22
2023-01-19T05:33:49.124Z,96184.38
2023-01-19T05:36:15.961Z,96180.69
2023-01-19T05:38:42.546Z,96190.28
2023-01-19T05:41:09.171Z,96180.97
2023-01-19T05:43:35.792Z,96183.97
2023-01-19T05:46:04.452Z,96184.81
2023-01-19T05:48:31.150Z,96179.78
2023-01-19T05:50:58.929Z,96184.06
2023-01-19T05:53:25.771Z,96190.78
2023-01-19T05:55:52.411Z,96202.97
2023-01-19T05:58:19.051Z,96198.50
2023-01-19T06:00:45.709Z,96201.03
2023-01-19T06:03:12.528Z,96206.56
2023-01-19T06:05:39.520Z,96207.44
2023-01-19T06:08:06.220Z,96198.63
2023-01-19T06:10:32.911Z,96196.44
2023-01-19T06:12:59.877Z,96207.63
2023-01-19T06:15:26.710Z,96200.97
2023-01-19T06:17:53.321Z,96201.53
2023-01-19T06:20:19.919Z,96208.03
2023-01-19T06:22:47.716Z,96202.81
2023-01-19T06:25:14.425Z,96203.00
2023-01-19T06:27:45.151Z,96204.44
2023-01-19T06:30:12.816Z,96213.59
2023-01-19T06:32:39.477Z,96227.22
2023-01-19T06:35:07.836Z,96216.28
2023-01-19T06:37:34.603Z,96213.66
2023-01-19T06:40:01.201Z,96211.50
2023-01-19T06:42:27.827Z,96215.78
2023-01-19T06:44:54.452Z,96214.06
2023-01-19T06:47:21.057Z,96220.50
2023-01-19T06:49:48.200Z,96224.34
2023-01-19T06:52:16.771Z,96225.97
2023-01-19T06:54:45.476Z,96227.84
2023-01-19T06:57:12.563Z,96238.25
2023-01-19T06:59:39.236Z,96240.91
2023-01-19T07:02:27.964Z,96250.69
2023-01-19T07:04:52.529Z,96238.09
2023-01-19T07:07:19.134Z,96241.94
2023-01-19T07:09:46.854Z,96246.28
2023-01-19T07:12:14.726Z,96249.66
2023-01-19T07:14:41.691Z,96253.41
2023-01-19T07:17:08.756Z,96251.44
2023-01-19T07:19:35.760Z,96245.00
2023-01-19T07:22:03.206Z,96245.41
2023-01-19T07:24:34.210Z,96253.97
2023-01-19T07:27:01.054Z,96262.50
2023-01-19T07:29:27.664Z,96268.00
2023-01-19T07:31:54.766Z,96277.75
2023-01-19T07:34:21.668Z,96276.34
2023-01-19T07:36:48.392Z,96272.44
2023-01-19T07:39:15.022Z,96285.50
2023-01-19T07:41:41.805Z,96281.75
2023-01-19T07:44:08.841Z,96289.66
2023-01-19T07:46:35.512Z,96296.13
2023-01-19T07:49:02.161Z,96292.25
2023-01-19T07:51:28.797Z,96285.72
2023-01-19T07:53:55.411Z,96281.22
2023-01-19T07:56:23.394Z,96283.56
2023-01-19T07:58:52.311Z,96287.09
2023-01-19T08:01:18.989Z,96291.22
2023-01-19T08:03:47.745Z,96296.59
2023-01-19T08:06:22.055Z,96295.25
2023-01-19T08:08:48.705Z,96291.81
2023-01-19T08:11:15.379Z,96299.38
2023-01-19T08:13:42.235Z,96290.22
2023-01-19T08:16:08.937Z,96305.09
2023-01-19T08:18:35.561Z,96308.19
2023-01-19T08:21:02.277Z,96309.38
2023-01-19T08:23:28.958Z,96303.56
2023-01-19T08:25:55.637Z,96313.38
2023-01-19T08:28:22.720Z,96317.59
2023-01-19T08:30:54.495Z,96308.34
2023-01-19T08:33:23.100Z,96312.50
2023-01-19T08:35:51.858Z,96322.00
2023-01-19T08:38:18.486Z,96325.09
2023-01-19T08:40:45.247Z,96325.31
2023-01-19T08:43:13.657Z,96335.44
2023-01-19T08:45:42.369Z,96331.09
2023-01-19T08:48:09.946Z,96337.63
2023-01-19T08:50:36.548Z,96351.25
2023-01-19T08:53:06.932Z,96355.22
2023-01-19T08:55:34.495Z,96351.25
2023-01-19T08:58:02.134Z,96353.47
2023-01-19T09:00:31.457Z,96360.78
2023-01-19T09:02:58.232Z,96373.16
2023-01-19T09:05:24.834Z,96378.16
2023-01-19T09:07:51.782Z,96375.63
2023-01-19T09:14:30.241Z,96387.41
2023-01-19T09:16:56.837Z,96378.09
2023-01-19T09:19:23.424Z,96382.13
2023-01-19T09:21:50.865Z,96379.22
2023-01-19T09:24:17.533Z,96388.47
2023-01-19T09:26:44.216Z,96395.44
2023-01-19T09:29:10.837Z,96394.16
2023-01-19T09:31:37.507Z,96388.34
2023-01-19T09:34:04.120Z,96389.59
2023-01-19T09:36:31.017Z,96398.88
2023-01-19T09:38:57.622Z,96392.53
2023-01-19T09:41:26.049Z,96396.34
2023-01-19T09:48:24.658Z,96399.03
2023-01-19T09:50:51.206Z,96394.31
2023-01-19T09:53:33.073Z,96395.16
2023-01-19T09:55:59.636Z,96392.59
2023-01-19T09:58:26.194Z,96392.47
2023-01-19T10:01:04.272Z,96395.34
2023-01-19T10:03:31.011Z,96396.03
2023-01-19T10:06:04.852Z,96392.38
2023-01-19T10:08:37.109Z,96399.97
2023-01-19T10:11:03.719Z,96386.09
2023-01-19T10:13:48.976Z,96391.91
2023-01-19T10:16:39.804Z,96387.94
2023-01-19T10:19:23.485Z,96389.69
2023-01-19T10:21:50.252Z,96380.06
2023-01-19T10:24:21.359Z,96380.97
2023-01-19T10:26:54.345Z,96386.59
2023-01-19T10:29:36.355Z,96379.94
2023-01-19T10:32:11.836Z,96373.63
2023-01-19T10:34:38.481Z,96374.75
2023-01-19T10:37:13.896Z,96383.94
2023-01-19T10:39:40.595Z,96376.41
2023-01-19T10:42:10.452Z,96374.06
2023-01-19T10:44:37.220Z,96375.72
2023-01-19T10:47:04.902Z,96374.13
2023-01-19T10:49:42.706Z,96364.34
2023-01-19T10:52:28.963Z,96365.72
2023-01-19T10:54:55.689Z,96356.47
2023-01-19T10:57:43.522Z,96353.09
2023-01-19T11:00:37.913Z,96351.44
2023-01-19T11:03:24.303Z,96343.13
2023-01-19T11:05:50.960Z,96347.63
2023-01-19T11:08:28.799Z,96345.44
2023-01-19T11:10:59.928Z,96338.91
2023-01-19T11:13:26.608Z,96340.53
2023-01-19T11:16:19.801Z,96339.19
2023-01-19T11:18:47.211Z,96341.50
2023-01-19T11:21:14.833Z,96340.81
2023-01-19T11:23:45.316Z,96335.78
2023-01-19T11:26:24.202Z,96337.25
2023-01-19T11:28:51.498Z,96332.19
2023-01-19T11:31:20.359Z,96331.00
2023-01-19T11:33:48.405Z,96326.28
2023-01-19T11:36:27.446Z,96334.44
2023-01-19T11:38:55.439Z,96328.72
2023-01-19T11:41:33.854Z,96330.34
2023-01-19T11:44:22.583Z,96324.22
2023-01-19T11:46:53.600Z,96333.88
2023-01-19T11:49:33.303Z,96325.47
2023-01-19T11:52:16.596Z,96318.41
2023-01-19T11:55:07.126Z,96329.28
2023-01-19T11:57:33.880Z,96330.63
2023-01-19T12:00:03.544Z,96329.50
2023-01-19T12:02:45.011Z,96329.78
2023-01-19T12:05:15.116Z,96332.38
2023-01-19T12:07:41.722Z,96323.81
2023-01-19T12:10:17.526Z,96323.56
2023-01-19T12:12:44.193Z,96326.69
2023-01-19T12:15:37.235Z,96329.53
2023-01-19T12:18:05.428Z,96339.59
2023-01-19T12:20:38.455Z,96342.72
2023-01-19T12:23:11.228Z,96352.22
2023-01-19T12:25:55.004Z,96352.38
2023-01-19T12:28:24.791Z,96352.91
2023-01-19T12:30:52.198Z,96356.31
2023-01-19T12:33:22.536Z,96360.28
2023-01-19T12:36:00.792Z,96359.97
2023-01-19T12:39:03.883Z,96358.78
2023-01-19T12:41:34.331Z,96343.41
2023-01-19T12:44:09.928Z,96350.34
2023-01-19T12:47:08.080Z,96344.22
2023-01-19T12:49:49.895Z,96355.94
2023-01-19T12:52:27.223Z,96355.06
2023-01-19T12:54:59.513Z,96353.59
2023-01-19T12:57:38.101Z,96353.22
2023-01-19T13:00:27.704Z,96351.59
2023-01-19T13:03:04.465Z,96353.34
2023-01-19T13:05:32.658Z,96341.25
2023-01-19T13:08:03.051Z,96342.88
2023-01-19T13:10:54.402Z,96342.59
2023-01-19T13:13:24.560Z,96342.63
2023-01-19T13:15:51.894Z,96347.22
2023-01-19T13:18:23.845Z,96341.25
2023-01-19T13:20:56.928Z,96347.50
2023-01-19T13:23:25.571Z,96339.06
2023-01-19T13:26:01.985Z,96336.91
2023-01-19T13:28:33.026Z,96342.72
2023-01-19T13:31:00.119Z,96350.06
2023-01-19T13:33:27.969Z,96334.56
2023-01-19T13:35:56.547Z,96352.25
2023-01-19T13:38:23.835Z,96342.03
2023-01-19T13:40:50.572Z,96343.38
2023-01-19T13:43:21.033Z,96346.50
2023-01-19T13:45:51.152Z,96340.25
2023-01-19T13:48:22.174Z,96343.13
2023-01-19T13:51:18.167Z,96347.88
2023-01-19T13:53:57.794Z,96351.00
2023-01-19T13:56:28.912Z,96356.72
2023-01-19T13:59:02.478Z,96356.97
2023-01-19T14:01:31.285Z,96359.72
2023-01-19T14:03:59.058Z,96357.50
2023-01-19T14:06:35.393Z,96348.00
2023-01-19T14:09:20.240Z,96355.63
2023-01-19T14:11:48.734Z,96353.19
2023-01-19T14:14:25.039Z,96347.44
2023-01-19T14:16:51.725Z,96347.69
2023-01-19T14:19:18.340Z,96351.66
2023-01-19T14:21:46.118Z,96344.44
2023-01-19T14:24:19.486Z,96348.81
2023-01-19T14:26:48.752Z,96354.94
2023-01-19T14:29:18.498Z,96356.28
2023-01-19T14:31:46.205Z,96353.94
2023-01-19T14:34:35.462Z,96357.06
2023-01-19T14:37:03.276Z,96357.78
2023-01-19T14:39:32.637Z,96360.50
2023-01-19T14:42:00.935Z,96355.81
2023-01-19T14:44:39.748Z,96363.75
2023-01-19T14:47:07.211Z,96366.88
2023-01-19T14:49:38.560Z,96369.75
2023-01-19T14:52:07.313Z,96368.78
2023-01-19T14:54:38.246Z,96368.50
2023-01-19T14:57:04.903Z,96366.13
2023-01-19T14:59:32.028Z,96366.50
2023-01-19T15:01:59.889Z,96372.47
2023-01-19T15:04:26.668Z,96365.13
2023-01-19T15:06:53.331Z,96365.16
2023-01-19T15:09:19.918Z,96361.75
2023-01-19T15:11:47.437Z,96369.22
2023-01-19T15:14:14.494Z,96360.53
2023-01-19T15:16:41.214Z,96366.78
2023-01-19T15:19:14.885Z,96362.44
2023-01-19T15:21:42.318Z,96359.72
2023-01-19T15:24:10.558Z,96352.94
2023-01-19T15:26:38.690Z,96357.56
2023-01-19T15:29:25.856Z,96347.75
2023-01-19T15:31:52.586Z,96357.66
2023-01-19T15:34:19.221Z,96352.31
2023-01-19T15:36:45.839Z,96359.16
2023-01-19T15:39:12.482Z,96354.41
2023-01-19T15:41:39.528Z,96361.63
2023-01-19T15:44:07.135Z,96353.22
2023-01-19T15:46:33.790Z,96360.00
2023-01-19T15:49:00.478Z,96355.09
2023-01-19T15:51:27.660Z,96347.19
2023-01-19T15:53:54.459Z,96353.19
2023-01-19T15:56:24.727Z,96344.31
2023-01-19T15:58:52.079Z,96354.84
2023-01-19T16:01:20.421Z,96351.13
2023-01-19T16:03:47.213Z,96347.72
2023-01-19T16:06:13.921Z,96348.81
2023-01-19T16:08:40.560Z,96348.59
2023-01-19T16:11:08.766Z,96359.72
2023-01-19T16:13:35.370Z,96358.75
2023-01-19T16:16:06.763Z,96367.19
2023-01-19T16:18:33.361Z,96355.78
2023-01-19T16:21:00.785Z,96366.22
2023-01-19T16:23:27.418Z,96366.25
2023-01-19T16:26:05.125Z,96362.41
2023-01-19T16:28:31.744Z,96356.94
2023-01-19T16:30:58.411Z,96364.16
2023-01-19T16:33:25.168Z,96359.53
2023-01-19T16:35:51.965Z,96365.13
2023-01-19T16:38:18.925Z,96362.78
2023-01-19T16:40:45.787Z,96362.69
2023-01-19T16:43:13.030Z,96362.81
2023-01-19T16:46:00.131Z,96357.56
2023-01-19T16:48:27.080Z,96355.78
2023-01-19T16:51:04.848Z,96351.81
2023-01-19T16:53:32.366Z,96354.81
2023-01-19T16:55:59.044Z,96356.72
2023-01-19T16:58:25.676Z,96355.78
2023-01-19T17:00:52.364Z,96350.28
2023-01-19T17:03:19.092Z,96361.31
2023-01-19T17:05:52.285Z,96357.25
2023-01-19T17:08:19.872Z,96350.69
2023-01-19T17:10:47.427Z,96355.44
2023-01-19T17:13:14.097Z,96353.34
2023-01-19T17:15:40.861Z,96351.78
2023-01-19T17:18:07.671Z,96357.25
2023-01-19T17:20:34.265Z,96359.38
2023-01-19T17:23:00.927Z,96360.03
2023-01-19T17:25:27.543Z,96362.25
2023-01-19T17:27:54.162Z,96371.09
2023-01-19T17:30:21.055Z,96372.31
2023-01-19T17:32:47.765Z,96371.59
2023-01-19T17:35:14.376Z,96375.66
2023-01-19T17:37:40.981Z,96377.88
2023-01-19T17:40:08.196Z,96381.53
2023-01-19T17:42:39.313Z,96380.34
2023-01-19T17:45:06.513Z,96375.94
2023-01-19T17:47:33.123Z,96382.66
2023-01-19T17:49:59.896Z,96377.25
2023-01-19T17:52:26.652Z,96385.41
2023-01-19T17:54:53.466Z,96387.66
2023-01-19T17:57:20.084Z,96377.50
2023-01-19T17:59:47.850Z,96398.56
2023-01-19T18:02:14.640Z,96397.19
2023-01-19T18:04:41.423Z,96392.19
2023-01-19T18:07:08.091Z,96394.44
2023-01-19T18:09:34.701Z,96400.41
2023-01-19T18:12:01.333Z,96394.75
2023-01-19T18:14:27.960Z,96390.22
2023-01-19T18:16:54.784Z,96392.66
2023-01-19T18:19:22.460Z,96391.31
2023-01-19T18:21:49.066Z,96393.34
2023-01-19T18:24:15.715Z,96400.19
2023-01-19T18:26:42.707Z,96393.94
2023-01-19T18:29:09.485Z,96399.63
2023-01-19T18:31:36.241Z,96403.19
2023-01-19T18:34:02.933Z,96401.03
2023-01-19T18:36:32.036Z,96393.41
2023-01-19T18:38:58.745Z,96402.41
2023-01-19T18:41:25.398Z,96399.31
2023-01-19T18:43:53.573Z,96401.56
2023-01-19T18:46:21.410Z,96398.44
2023-01-19T18:48:48.055Z,96395.03
2023-01-19T18:51:15.016Z,96399.03
2023-01-19T18:53:41.889Z,96402.00
2023-01-19T18:56:10.257Z,96416.25
2023-01-19T18:58:37.464Z,96411.19
2023-01-19T19:01:04.263Z,96414.88
2023-01-19T19:03:30.962Z,96417.47
2023-01-19T19:06:01.587Z,96412.97
2023-01-19T19:08:28.253Z,96420.78
2023-01-19T19:10:54.932Z,96427.66
2023-01-19T19:13:21.963Z,96421.03
2023-01-19T19:15:48.627Z,96426.06
2023-01-19T19:18:16.312Z,96425.91
2023-01-19T19:20:43.474Z,96419.72
2023-01-19T19:23:10.770Z,96431.66
2023-01-19T19:25:37.495Z,96431.22
2023-01-19T19:28:04.319Z,96436.09
2023-01-19T19:30:32.518Z,96437.53
2023-01-19T19:32:59.857Z,96429.13
2023-01-19T19:35:26.530Z,96434.47
2023-01-19T19:37:57.463Z,96430.25
2023-01-19T19:40:25.331Z,96436.75
2023-01-19T19:42:52.056Z,96443.34
2023-01-19T19:45:19.409Z,96455.44
2023-01-19T19:47:46.064Z,96457.59
2023-01-19T19:50:12.962Z,96458.56
2023-01-19T19:52:42.952Z,96460.16
2023-01-19T19:55:09.998Z,96473.91
2023-01-19T19:57:36.712Z,96477.44
2023-01-19T20:00:05.150Z,96482.63
2023-01-19T20:02:36.643Z,96484.00
2023-01-19T20:05:03.766Z,96486.13
2023-01-19T20:07:30.630Z,96492.13
2023-01-19T20:09:57.242Z,96496.78
2023-01-19T20:12:23.879Z,96500.94
2023-01-19T20:14:50.463Z,96500.38
2023-01-19T20:17:17.208Z,96510.16
2023-01-19T20:19:45.606Z,96520.66
2023-01-19T20:22:12.472Z,96525.13
2023-01-19T20:24:39.174Z,96528.13
2023-01-19T20:27:05.808Z,96540.66
2023-01-19T20:29:32.437Z,96539.97
2023-01-19T20:31:59.118Z,96553.59
2023-01-19T20:34:28.301Z,96569.81
2023-01-19T20:36:55.058Z,96579.59
2023-01-19T20:39:22.049Z,96582.31
2023-01-19T20:41:51.090Z,96598.94
2023-01-19T20:44:23.599Z,96604.13
2023-01-19T20:46:50.406Z,96607.91
2023-01-19T20:49:17.090Z,96616.75
2023-01-19T20:51:46.106Z,96629.72
2023-01-19T20:54:16.849Z,96643.34
2023-01-19T20:56:43.677Z,96643.59
2023-01-19T20:59:10.686Z,96659.41
2023-01-19T21:01:37.752Z,96663.88
2023-01-19T21:04:04.642Z,96670.31
2023-01-19T21:06:31.357Z,96673.84
2023-01-19T21:08:58.064Z,96684.88
2023-01-19T21:11:24.899Z,96680.59
2023-01-19T21:13:55.559Z,96685.66
2023-01-19T21:16:26.399Z,96692.63
2023-01-19T21:18:53.129Z,96695.34
2023-01-19T21:21:29.762Z,96706.28
2023-01-19T21:23:58.536Z,96698.25
2023-01-19T21:26:25.294Z,96700.22
2023-01-19T21:28:51.977Z,96716.63
2023-01-19T21:31:18.978Z,96730.00
2023-01-19T21:33:45.675Z,96720.91
2023-01-19T21:36:12.346Z,96732.16
2023-01-19T21:38:39.154Z,96730.41
2023-01-19T21:41:11.046Z,96730.53
2023-01-19T21:43:39.021Z,96736.25
2023-01-19T21:46:13.800Z,96739.53
2023-01-19T21:48:41.396Z,96739.19
2023-01-19T21:51:08.075Z,96736.31
2023-01-19T21:53:34.709Z,96737.06
2023-01-19T21:56:01.365Z,96733.09
2023-01-19T21:58:28.103Z,96735.81
2023-01-19T22:01:01.754Z,96744.34
2023-01-19T22:03:28.765Z,96756.69
2023-01-19T22:05:55.971Z,96763.44
2023-01-19T22:08:23.566Z,96768.44
2023-01-19T22:10:50.162Z,96773.63
2023-01-19T22:13:16.763Z,96767.31
2023-01-19T22:15:43.367Z,96767.03
2023-01-19T22:18:10.395Z,96769.56
2023-01-19T22:20:37.011Z,96767.44
2023-01-19T22:23:03.683Z,96765.41
2023-01-19T22:25:32.573Z,96777.22
2023-01-19T22:27:59.368Z,96772.16
2023-01-19T22:30:26.143Z,96790.66
2023-01-19T22:32:53.181Z,96782.41
2023-01-19T22:35:21.252Z,96785.53
2023-01-19T22:37:48.037Z,96786.13
2023-01-19T22:40:14.715Z,96788.44
2023-01-19T22:42:45.235Z,96787.63
2023-01-19T22:45:12.044Z,96791.28
2023-01-19T22:47:38.914Z,96782.97
2023-01-19T22:50:05.991Z,96787.00
2023-01-19T22:52:32.624Z,96796.41
2023-01-19T22:54:59.994Z,96800.13
2023-01-19T22:57:26.612Z,96804.63
2023-01-19T22:59:53.187Z,96813.78
2023-01-19T23:02:21.070Z,96807.03
2023-01-19T23:04:47.796Z,96812.28
2023-01-19T23:07:14.428Z,96815.75
2023-01-19T23:09:41.010Z,96819.91
2023-01-19T23:12:07.651Z,96822.88
2023-01-19T23:14:34.668Z,96834.06
2023-01-19T23:17:01.328Z,96837.44
2023-01-19T23:19:27.921Z,96848.03
2023-01-19T23:21:54.537Z,96855.41
2023-01-19T23:24:21.296Z,96872.34
2023-01-19T23:26:49.611Z,96873.69
2023-01-19T23:29:16.500Z,96859.72
2023-01-19T23:31:44.801Z,96871.09
2023-01-19T23:34:12.317Z,96868.34
2023-01-19T23:36:39.768Z,96866.16
2023-01-19T23:39:19.928Z,96855.03
2023-01-19T23:41:46.810Z,96876.41
2023-01-19T23:44:13.533Z,96866.00
2023-01-19T23:46:40.153Z,96867.81
2023-01-19T23:49:06.749Z,96873.91
2023-01-19T23:51:33.434Z,96883.38
2023-01-19T23:54:00.217Z,96881.84
2023-01-19T23:56:31.071Z,96895.09
2023-01-19T23:59:05.714Z,96884.59
